sensor_id;sensor_type;location;lat;lon;timestamp;pressure;altitude;pressure_sealevel;temperature;humidity
59787;BME280;45672;51.612;5.536;2023-07-29T00:01:17;100559.00;;;18.30;100.00
59787;BME280;45672;51.612;5.536;2023-07-29T00:03:43;100545.97;;;18.20;100.00
59787;BME280;45672;51.612;5.536;2023-07-29T00:06:09;100546.19;;;18.18;100.00
59787;BME280;45672;51.612;5.536;2023-07-29T00:08:35;100542.88;;;18.16;100.00
59787;BME280;45672;51.612;5.536;2023-07-29T00:11:00;100543.28;;;18.26;100.00
59787;BME280;45672;51.612;5.536;2023-07-29T00:13:25;100544.50;;;18.24;100.00
59787;BME280;45672;51.612;5.536;2023-07-29T00:15:53;100536.00;;;18.27;100.00
59787;BME280;45672;51.612;5.536;2023-07-29T00:18:19;100526.25;;;18.26;100.00
59787;BME280;45672;51.612;5.536;2023-07-29T00:20:44;100516.94;;;18.29;100.00
59787;BME280;45672;51.612;5.536;2023-07-29T00:23:10;100526.03;;;18.27;100.00
59787;BME280;45672;51.612;5.536;2023-07-29T00:25:36;100527.72;;;18.29;100.00
59787;BME280;45672;51.612;5.536;2023-07-29T00:28:01;100534.34;;;18.26;100.00
59787;BME280;45672;51.612;5.536;2023-07-29T00:30:26;100538.69;;;18.27;100.00
59787;BME280;45672;51.612;5.536;2023-07-29T00:32:51;100538.69;;;18.27;100.00
59787;BME280;45672;51.612;5.536;2023-07-29T00:35:17;100532.06;;;18.30;100.00
59787;BME280;45672;51.612;5.536;2023-07-29T00:37:42;100529.59;;;18.28;100.00
59787;BME280;45672;51.612;5.536;2023-07-29T00:40:14;100526.47;;;18.31;100.00
59787;BME280;45672;51.612;5.536;2023-07-29T00:42:41;100536.81;;;18.34;100.00
59787;BME280;45672;51.612;5.536;2023-07-29T00:45:08;100532.00;;;18.36;100.00
59787;BME280;45672;51.612;5.536;2023-07-29T00:47:34;100530.97;;;18.37;100.00
59787;BME280;45672;51.612;5.536;2023-07-29T00:49:59;100516.28;;;18.33;100.00
59787;BME280;45672;51.612;5.536;2023-07-29T00:52:24;100508.03;;;18.28;100.00
59787;BME280;45672;51.612;5.536;2023-07-29T00:54:50;100519.84;;;18.27;100.00
59787;BME280;45672;51.612;5.536;2023-07-29T00:57:16;100518.22;;;18.19;100.00
59787;BME280;45672;51.612;5.536;2023-07-29T00:59:43;100511.19;;;18.18;100.00
59787;BME280;45672;51.612;5.536;2023-07-29T01:02:08;100509.16;;;18.14;100.00
59787;BME280;45672;51.612;5.536;2023-07-29T01:04:33;100509.31;;;18.12;100.00
59787;BME280;45672;51.612;5.536;2023-07-29T01:07:18;100510.38;;;18.11;100.00
59787;BME280;45672;51.612;5.536;2023-07-29T01:10:05;100512.22;;;18.11;100.00
59787;BME280;45672;51.612;5.536;2023-07-29T01:12:48;100508.50;;;18.12;100.00
59787;BME280;45672;51.612;5.536;2023-07-29T01:15:17;100504.38;;;18.09;100.00
59787;BME280;45672;51.612;5.536;2023-07-29T01:17:56;100502.94;;;18.06;100.00
59787;BME280;45672;51.612;5.536;2023-07-29T01:20:25;100506.47;;;18.07;100.00
59787;BME280;45672;51.612;5.536;2023-07-29T01:22:51;100514.75;;;18.05;100.00
59787;BME280;45672;51.612;5.536;2023-07-29T01:25:16;100512.06;;;18.05;100.00
59787;BME280;45672;51.612;5.536;2023-07-29T01:27:44;100513.09;;;18.04;100.00
59787;BME280;45672;51.612;5.536;2023-07-29T01:30:10;100510.00;;;18.01;100.00
59787;BME280;45672;51.612;5.536;2023-07-29T01:33:04;100510.19;;;17.99;100.00
59787;BME280;45672;51.612;5.536;2023-07-29T01:35:28;100515.59;;;17.99;100.00
59787;BME280;45672;51.612;5.536;2023-07-29T01:38:04;100507.94;;;17.96;100.00
59787;BME280;45672;51.612;5.536;2023-07-29T01:40:31;100508.97;;;17.95;100.00
59787;BME280;45672;51.612;5.536;2023-07-29T01:42:57;100513.53;;;17.95;100.00
59787;BME280;45672;51.612;5.536;2023-07-29T01:45:24;100513.31;;;17.96;100.00
59787;BME280;45672;51.612;5.536;2023-07-29T01:47:50;100512.28;;;17.97;100.00
59787;BME280;45672;51.612;5.536;2023-07-29T01:50:16;100522.63;;;18.00;100.00
59787;BME280;45672;51.612;5.536;2023-07-29T01:52:41;100519.94;;;18.00;100.00
59787;BME280;45672;51.612;5.536;2023-07-29T01:55:07;100520.16;;;18.05;100.00
59787;BME280;45672;51.612;5.536;2023-07-29T01:57:32;100520.16;;;18.05;100.00
59787;BME280;45672;51.612;5.536;2023-07-29T01:59:58;100521.16;;;18.04;100.00
59787;BME280;45672;51.612;5.536;2023-07-29T02:02:24;100525.91;;;18.09;100.00
59787;BME280;45672;51.612;5.536;2023-07-29T02:04:49;100523.22;;;18.16;100.00
59787;BME280;45672;51.612;5.536;2023-07-29T02:07:17;100522.78;;;18.19;100.00
59787;BME280;45672;51.612;5.536;2023-07-29T02:09:43;100524.44;;;18.20;100.00
59787;BME280;45672;51.612;5.536;2023-07-29T02:12:08;100526.31;;;18.19;100.00
59787;BME280;45672;51.612;5.536;2023-07-29T02:14:34;100526.31;;;18.13;100.00
59787;BME280;45672;51.612;5.536;2023-07-29T02:16:59;100520.09;;;18.12;100.00
59787;BME280;45672;51.612;5.536;2023-07-29T02:19:24;100520.75;;;18.07;100.00
59787;BME280;45672;51.612;5.536;2023-07-29T02:21:49;100514.31;;;18.08;100.00
59787;BME280;45672;51.612;5.536;2023-07-29T02:24:15;100510.63;;;18.03;100.00
59787;BME280;45672;51.612;5.536;2023-07-29T02:26:41;100504.22;;;17.97;100.00
59787;BME280;45672;51.612;5.536;2023-07-29T02:29:06;100497.81;;;17.98;100.00
59787;BME280;45672;51.612;5.536;2023-07-29T02:31:32;100497.38;;;17.95;100.00
59787;BME280;45672;51.612;5.536;2023-07-29T02:33:57;100492.41;;;17.85;100.00
59787;BME280;45672;51.612;5.536;2023-07-29T02:36:23;100500.72;;;17.83;100.00
59787;BME280;45672;51.612;5.536;2023-07-29T02:38:48;100500.31;;;17.80;100.00
59787;BME280;45672;51.612;5.536;2023-07-29T02:41:13;100508.41;;;17.80;100.00
59787;BME280;45672;51.612;5.536;2023-07-29T02:43:42;100505.28;;;17.76;100.00
59787;BME280;45672;51.612;5.536;2023-07-29T02:46:07;100505.50;;;17.74;100.00
59787;BME280;45672;51.612;5.536;2023-07-29T02:48:33;100495.75;;;17.73;100.00
59787;BME280;45672;51.612;5.536;2023-07-29T02:50:58;100498.88;;;17.70;100.00
59787;BME280;45672;51.612;5.536;2023-07-29T02:53:24;100496.63;;;17.67;100.00
59787;BME280;45672;51.612;5.536;2023-07-29T02:55:50;100499.72;;;17.64;100.00
59787;BME280;45672;51.612;5.536;2023-07-29T02:58:15;100504.47;;;17.62;100.00
59787;BME280;45672;51.612;5.536;2023-07-29T03:00:40;100503.66;;;17.62;100.00
59787;BME280;45672;51.612;5.536;2023-07-29T03:03:07;100489.63;;;17.53;100.00
59787;BME280;45672;51.612;5.536;2023-07-29T03:05:33;100497.25;;;17.56;100.00
59787;BME280;45672;51.612;5.536;2023-07-29T03:07:58;100497.69;;;17.53;100.00
59787;BME280;45672;51.612;5.536;2023-07-29T03:10:24;100500.38;;;17.53;100.00
59787;BME280;45672;51.612;5.536;2023-07-29T03:12:50;100490.84;;;17.50;100.00
59787;BME280;45672;51.612;5.536;2023-07-29T03:15:15;100500.38;;;17.53;100.00
59787;BME280;45672;51.612;5.536;2023-07-29T03:17:41;100493.34;;;17.52;100.00
59787;BME280;45672;51.612;5.536;2023-07-29T03:20:07;100501.81;;;17.49;100.00
59787;BME280;45672;51.612;5.536;2023-07-29T03:22:32;100493.97;;;17.47;100.00
59787;BME280;45672;51.612;5.536;2023-07-29T03:24:57;100495.22;;;17.45;100.00
59787;BME280;45672;51.612;5.536;2023-07-29T03:27:23;100493.97;;;17.40;100.00
59787;BME280;45672;51.612;5.536;2023-07-29T03:29:48;100498.94;;;17.37;100.00
59787;BME280;45672;51.612;5.536;2023-07-29T03:32:13;100497.50;;;17.34;100.00
59787;BME280;45672;51.612;5.536;2023-07-29T03:34:39;100507.00;;;17.30;100.00
59787;BME280;45672;51.612;5.536;2023-07-29T03:37:05;100516.09;;;17.29;100.00
59787;BME280;45672;51.612;5.536;2023-07-29T03:39:31;100512.19;;;17.25;100.00
59787;BME280;45672;51.612;5.536;2023-07-29T03:41:57;100504.75;;;17.20;100.00
59787;BME280;45672;51.612;5.536;2023-07-29T03:44:22;100506.41;;;17.21;100.00
59787;BME280;45672;51.612;5.536;2023-07-29T03:46:47;100515.91;;;17.17;100.00
59787;BME280;45672;51.612;5.536;2023-07-29T03:49:13;100518.38;;;17.12;100.00
59787;BME280;45672;51.612;5.536;2023-07-29T03:51:38;100510.53;;;17.11;100.00
59787;BME280;45672;51.612;5.536;2023-07-29T03:54:03;100502.88;;;17.08;100.00
59787;BME280;45672;51.612;5.536;2023-07-29T03:56:29;100497.91;;;17.04;100.00
59787;BME280;45672;51.612;5.536;2023-07-29T03:59:02;100504.31;;;17.03;100.00
59787;BME280;45672;51.612;5.536;2023-07-29T04:01:28;100498.13;;;16.96;100.00
59787;BME280;45672;51.612;5.536;2023-07-29T04:03:54;100494.41;;;16.97;100.00
59787;BME280;45672;51.612;5.536;2023-07-29T04:06:20;100481.78;;;16.98;100.00
59787;BME280;45672;51.612;5.536;2023-07-29T04:08:45;100470.44;;;16.96;100.00
59787;BME280;45672;51.612;5.536;2023-07-29T04:11:11;100453.28;;;16.90;100.00
59787;BME280;45672;51.612;5.536;2023-07-29T04:13:36;100450.13;;;16.86;100.00
59787;BME280;45672;51.612;5.536;2023-07-29T04:16:03;100469.38;;;16.90;100.00
59787;BME280;45672;51.612;5.536;2023-07-29T04:18:29;100469.56;;;16.88;100.00
59787;BME280;45672;51.612;5.536;2023-07-29T04:20:54;100464.19;;;16.88;100.00
59787;BME280;45672;51.612;5.536;2023-07-29T04:23:19;100472.28;;;16.95;100.00
59787;BME280;45672;51.612;5.536;2023-07-29T04:25:44;100466.06;;;16.95;100.00
59787;BME280;45672;51.612;5.536;2023-07-29T04:28:10;100489.41;;;16.94;100.00
59787;BME280;45672;51.612;5.536;2023-07-29T04:30:35;100502.25;;;16.92;100.00
59787;BME280;45672;51.612;5.536;2023-07-29T04:33:00;100512.38;;;16.90;100.00
59787;BME280;45672;51.612;5.536;2023-07-29T04:35:26;100516.28;;;16.87;100.00
59787;BME280;45672;51.612;5.536;2023-07-29T04:37:51;100521.03;;;16.79;100.00
59787;BME280;45672;51.612;5.536;2023-07-29T04:40:16;100527.81;;;16.81;100.00
59787;BME280;45672;51.612;5.536;2023-07-29T04:42:42;100519.59;;;16.83;100.00
59787;BME280;45672;51.612;5.536;2023-07-29T04:45:07;100505.75;;;16.86;100.00
59787;BME280;45672;51.612;5.536;2023-07-29T04:47:32;100505.94;;;16.84;100.00
59787;BME280;45672;51.612;5.536;2023-07-29T04:49:58;100518.59;;;16.91;100.00
59787;BME280;45672;51.612;5.536;2023-07-29T04:52:23;100516.09;;;16.89;100.00
59787;BME280;45672;51.612;5.536;2023-07-29T04:54:48;100519.41;;;16.91;100.00
59787;BME280;45672;51.612;5.536;2023-07-29T04:57:14;100520.84;;;16.94;100.00
59787;BME280;45672;51.612;5.536;2023-07-29T04:59:39;100514.84;;;16.98;100.00
59787;BME280;45672;51.612;5.536;2023-07-29T05:02:04;100510.31;;;16.99;100.00
59787;BME280;45672;51.612;5.536;2023-07-29T05:04:30;100517.56;;;17.05;100.00
59787;BME280;45672;51.612;5.536;2023-07-29T05:06:55;100528.53;;;17.10;100.00
59787;BME280;45672;51.612;5.536;2023-07-29T05:09:20;100528.94;;;17.14;100.00
59787;BME280;45672;51.612;5.536;2023-07-29T05:11:46;100527.91;;;17.15;100.00
59787;BME280;45672;51.612;5.536;2023-07-29T05:14:17;100539.47;;;17.15;100.00
59787;BME280;45672;51.612;5.536;2023-07-29T05:16:43;100535.34;;;17.13;100.00
59787;BME280;45672;51.612;5.536;2023-07-29T05:19:09;100540.50;;;17.08;100.00
59787;BME280;45672;51.612;5.536;2023-07-29T05:21:34;100533.88;;;17.03;100.00
59787;BME280;45672;51.612;5.536;2023-07-29T05:24:00;100537.63;;;17.09;100.00
59787;BME280;45672;51.612;5.536;2023-07-29T05:26:25;100552.31;;;17.13;100.00
59787;BME280;45672;51.612;5.536;2023-07-29T05:28:50;100551.69;;;17.18;100.00
59787;BME280;45672;51.612;5.536;2023-07-29T05:31:16;100537.41;;;17.17;100.00
59787;BME280;45672;51.612;5.536;2023-07-29T05:33:41;100545.91;;;17.28;100.00
59787;BME280;45672;51.612;5.536;2023-07-29T05:36:06;100535.75;;;17.30;100.00
59787;BME280;45672;51.612;5.536;2023-07-29T05:38:31;100539.50;;;17.29;100.00
59787;BME280;45672;51.612;5.536;2023-07-29T05:40:57;100533.91;;;17.30;100.00
59787;BME280;45672;51.612;5.536;2023-07-29T05:43:24;100537.84;;;17.34;100.00
59787;BME280;45672;51.612;5.536;2023-07-29T05:45:50;100541.56;;;17.40;100.00
59787;BME280;45672;51.612;5.536;2023-07-29T05:48:16;100547.13;;;17.45;100.00
59787;BME280;45672;51.612;5.536;2023-07-29T05:50:41;100547.56;;;17.49;100.00
59787;BME280;45672;51.612;5.536;2023-07-29T05:53:06;100537.81;;;17.54;100.00
59787;BME280;45672;51.612;5.536;2023-07-29T05:55:32;100548.97;;;17.65;100.00
59787;BME280;45672;51.612;5.536;2023-07-29T05:57:57;100527.84;;;17.75;100.00
59787;BME280;45672;51.612;5.536;2023-07-29T06:00:23;100544.41;;;17.92;100.00
59787;BME280;45672;51.612;5.536;2023-07-29T06:02:48;100545.84;;;18.01;100.00
59787;BME280;45672;51.612;5.536;2023-07-29T06:05:13;100552.84;;;18.09;100.00
59787;BME280;45672;51.612;5.536;2023-07-29T06:07:39;100542.47;;;18.13;100.00
59787;BME280;45672;51.612;5.536;2023-07-29T06:10:09;100546.13;;;18.32;100.00
59787;BME280;45672;51.612;5.536;2023-07-29T06:12:36;100535.69;;;18.49;100.00
59787;BME280;45672;51.612;5.536;2023-07-29T06:15:02;100539.34;;;18.68;100.00
59787;BME280;45672;51.612;5.536;2023-07-29T06:17:27;100536.91;;;18.91;100.00
59787;BME280;45672;51.612;5.536;2023-07-29T06:19:53;100544.50;;;19.08;100.00
59787;BME280;45672;51.612;5.536;2023-07-29T06:22:18;100555.94;;;19.28;100.00
59787;BME280;45672;51.612;5.536;2023-07-29T06:24:43;100551.56;;;19.53;100.00
59787;BME280;45672;51.612;5.536;2023-07-29T06:27:08;100550.25;;;19.62;99.31
59787;BME280;45672;51.612;5.536;2023-07-29T06:29:34;100535.00;;;19.74;97.41
59787;BME280;45672;51.612;5.536;2023-07-29T06:31:59;100540.03;;;19.89;97.59
59787;BME280;45672;51.612;5.536;2023-07-29T06:34:25;100549.56;;;19.92;96.06
59787;BME280;45672;51.612;5.536;2023-07-29T06:36:51;100536.75;;;19.87;96.52
59787;BME280;45672;51.612;5.536;2023-07-29T06:39:16;100548.50;;;19.74;97.14
59787;BME280;45672;51.612;5.536;2023-07-29T06:41:41;100553.00;;;19.55;97.13
59787;BME280;45672;51.612;5.536;2023-07-29T06:44:07;100554.72;;;19.50;98.36
59787;BME280;45672;51.612;5.536;2023-07-29T06:46:32;100557.69;;;19.67;98.40
59787;BME280;45672;51.612;5.536;2023-07-29T06:48:57;100557.38;;;20.19;96.26
59787;BME280;45672;51.612;5.536;2023-07-29T06:51:23;100542.88;;;20.80;93.04
59787;BME280;45672;51.612;5.536;2023-07-29T06:53:48;100550.53;;;21.73;87.85
59787;BME280;45672;51.612;5.536;2023-07-29T06:56:13;100548.25;;;22.58;81.95
59787;BME280;45672;51.612;5.536;2023-07-29T06:58:39;100554.59;;;23.44;76.85
59787;BME280;45672;51.612;5.536;2023-07-29T07:01:04;100557.94;;;24.24;72.04
59787;BME280;45672;51.612;5.536;2023-07-29T07:03:29;100560.97;;;24.77;70.57
59787;BME280;45672;51.612;5.536;2023-07-29T07:05:54;100566.69;;;25.35;66.04
59787;BME280;45672;51.612;5.536;2023-07-29T07:08:20;100580.84;;;25.75;63.42
59787;BME280;45672;51.612;5.536;2023-07-29T07:10:47;100582.06;;;25.99;61.78
59787;BME280;45672;51.612;5.536;2023-07-29T07:13:12;100587.31;;;26.06;60.79
59787;BME280;45672;51.612;5.536;2023-07-29T07:15:37;100580.38;;;25.88;61.43
59787;BME280;45672;51.612;5.536;2023-07-29T07:18:03;100584.47;;;25.43;63.31
59787;BME280;45672;51.612;5.536;2023-07-29T07:20:28;100580.31;;;25.35;63.87
59787;BME280;45672;51.612;5.536;2023-07-29T07:22:54;100585.75;;;25.35;62.68
59787;BME280;45672;51.612;5.536;2023-07-29T07:25:19;100582.56;;;24.61;64.95
59787;BME280;45672;51.612;5.536;2023-07-29T07:27:44;100578.72;;;23.91;68.08
59787;BME280;45672;51.612;5.536;2023-07-29T07:30:10;100575.38;;;23.33;70.83
59787;BME280;45672;51.612;5.536;2023-07-29T07:32:35;100590.91;;;22.92;72.65
59787;BME280;45672;51.612;5.536;2023-07-29T07:35:01;100575.66;;;22.45;76.32
59787;BME280;45672;51.612;5.536;2023-07-29T07:37:27;100590.19;;;22.03;78.20
59787;BME280;45672;51.612;5.536;2023-07-29T07:39:52;100590.31;;;22.08;78.58
59787;BME280;45672;51.612;5.536;2023-07-29T07:42:17;100598.09;;;22.04;79.69
59787;BME280;45672;51.612;5.536;2023-07-29T07:44:43;100589.06;;;21.75;80.79
59787;BME280;45672;51.612;5.536;2023-07-29T07:47:08;100594.25;;;21.65;81.84
59787;BME280;45672;51.612;5.536;2023-07-29T07:49:33;100599.44;;;21.36;82.42
59787;BME280;45672;51.612;5.536;2023-07-29T07:51:59;100597.63;;;21.06;84.03
59787;BME280;45672;51.612;5.536;2023-07-29T07:54:24;100599.13;;;21.02;83.61
59787;BME280;45672;51.612;5.536;2023-07-29T07:56:49;100594.81;;;21.01;85.69
59787;BME280;45672;51.612;5.536;2023-07-29T07:59:15;100601.63;;;21.04;84.55
59787;BME280;45672;51.612;5.536;2023-07-29T08:01:40;100598.34;;;21.13;85.13
59787;BME280;45672;51.612;5.536;2023-07-29T08:04:06;100610.63;;;21.28;83.69
59787;BME280;45672;51.612;5.536;2023-07-29T08:06:32;100607.72;;;21.41;83.76
59787;BME280;45672;51.612;5.536;2023-07-29T08:08:58;100605.16;;;22.06;80.80
59787;BME280;45672;51.612;5.536;2023-07-29T08:11:23;100604.19;;;22.35;78.27
59787;BME280;45672;51.612;5.536;2023-07-29T08:13:49;100605.16;;;22.70;75.63
59787;BME280;45672;51.612;5.536;2023-07-29T08:16:14;100603.56;;;23.32;72.17
59787;BME280;45672;51.612;5.536;2023-07-29T08:18:40;100597.59;;;23.86;71.24
59787;BME280;45672;51.612;5.536;2023-07-29T08:21:05;100607.47;;;25.30;65.90
59787;BME280;45672;51.612;5.536;2023-07-29T08:23:32;100617.69;;;26.25;61.15
59787;BME280;45672;51.612;5.536;2023-07-29T08:25:59;100611.56;;;25.60;59.06
59787;BME280;45672;51.612;5.536;2023-07-29T08:28:28;100611.28;;;24.52;64.06
59787;BME280;45672;51.612;5.536;2023-07-29T08:30:54;100608.34;;;23.92;66.28
59787;BME280;45672;51.612;5.536;2023-07-29T08:33:20;100593.09;;;23.91;66.65
59787;BME280;45672;51.612;5.536;2023-07-29T08:35:45;100605.06;;;24.57;66.07
59787;BME280;45672;51.612;5.536;2023-07-29T08:38:10;100596.31;;;26.02;61.21
59787;BME280;45672;51.612;5.536;2023-07-29T08:40:39;100612.72;;;26.86;55.92
59787;BME280;45672;51.612;5.536;2023-07-29T08:43:07;100616.56;;;27.00;53.86
59787;BME280;45672;51.612;5.536;2023-07-29T08:45:35;100612.72;;;26.12;55.47
59787;BME280;45672;51.612;5.536;2023-07-29T08:48:07;100612.59;;;25.26;59.04
59787;BME280;45672;51.612;5.536;2023-07-29T08:50:35;100614.78;;;25.24;60.39
59787;BME280;45672;51.612;5.536;2023-07-29T08:53:03;100603.34;;;25.55;58.78
59787;BME280;45672;51.612;5.536;2023-07-29T08:55:29;100610.97;;;25.25;60.14
59787;BME280;45672;51.612;5.536;2023-07-29T08:57:54;100600.72;;;24.78;59.94
59787;BME280;45672;51.612;5.536;2023-07-29T09:00:20;100606.97;;;24.78;62.25
59787;BME280;45672;51.612;5.536;2023-07-29T09:02:46;100607.94;;;25.49;59.79
59787;BME280;45672;51.612;5.536;2023-07-29T09:05:11;100605.97;;;27.45;55.64
59787;BME280;45672;51.612;5.536;2023-07-29T09:07:38;100593.47;;;28.30;48.54
59787;BME280;45672;51.612;5.536;2023-07-29T09:10:03;100593.09;;;27.71;51.22
59787;BME280;45672;51.612;5.536;2023-07-29T09:12:29;100604.16;;;28.86;47.93
59787;BME280;45672;51.612;5.536;2023-07-29T09:14:54;100607.19;;;30.94;42.31
59787;BME280;45672;51.612;5.536;2023-07-29T09:17:20;100598.34;;;32.10;40.16
59787;BME280;45672;51.612;5.536;2023-07-29T09:19:48;100599.50;;;33.19;36.62
59787;BME280;45672;51.612;5.536;2023-07-29T09:22:18;100595.69;;;32.05;38.68
59787;BME280;45672;51.612;5.536;2023-07-29T09:24:45;100590.06;;;31.02;39.51
59787;BME280;45672;51.612;5.536;2023-07-29T09:27:23;100591.09;;;30.87;42.65
59787;BME280;45672;51.612;5.536;2023-07-29T09:29:48;100589.88;;;32.34;37.25
59787;BME280;45672;51.612;5.536;2023-07-29T09:32:20;100573.53;;;32.38;37.46
59787;BME280;45672;51.612;5.536;2023-07-29T09:34:46;100582.47;;;33.16;34.68
59787;BME280;45672;51.612;5.536;2023-07-29T09:37:21;100584.25;;;33.35;34.73
59787;BME280;45672;51.612;5.536;2023-07-29T09:39:47;100593.63;;;33.65;33.95
59787;BME280;45672;51.612;5.536;2023-07-29T09:42:21;100586.78;;;34.61;34.24
59787;BME280;45672;51.612;5.536;2023-07-29T09:44:48;100584.38;;;35.03;31.45
59787;BME280;45672;51.612;5.536;2023-07-29T09:47:20;100591.53;;;35.04;32.53
59787;BME280;45672;51.612;5.536;2023-07-29T09:49:46;100587.69;;;33.41;33.79
59787;BME280;45672;51.612;5.536;2023-07-29T09:52:14;100591.75;;;33.21;34.45
59787;BME280;45672;51.612;5.536;2023-07-29T09:54:40;100589.97;;;32.29;35.73
59787;BME280;45672;51.612;5.536;2023-07-29T09:57:06;100585.72;;;32.23;36.39
59787;BME280;45672;51.612;5.536;2023-07-29T09:59:35;100586.03;;;32.21;36.93
59787;BME280;45672;51.612;5.536;2023-07-29T10:02:00;100588.88;;;31.88;36.18
59787;BME280;45672;51.612;5.536;2023-07-29T10:04:26;100579.25;;;31.25;38.57
59787;BME280;45672;51.612;5.536;2023-07-29T10:06:52;100586.94;;;32.81;34.96
59787;BME280;45672;51.612;5.536;2023-07-29T10:09:20;100585.22;;;33.71;33.83
59787;BME280;45672;51.612;5.536;2023-07-29T10:11:45;100599.69;;;34.16;32.67
59787;BME280;45672;51.612;5.536;2023-07-29T10:14:11;100584.59;;;32.60;35.00
59787;BME280;45672;51.612;5.536;2023-07-29T10:16:36;100583.75;;;32.37;36.07
59787;BME280;45672;51.612;5.536;2023-07-29T10:19:04;100587.16;;;31.13;37.14
59787;BME280;45672;51.612;5.536;2023-07-29T10:21:30;100588.72;;;29.94;39.62
59787;BME280;45672;51.612;5.536;2023-07-29T10:24:00;100591.50;;;29.35;41.47
59787;BME280;45672;51.612;5.536;2023-07-29T10:26:28;100578.75;;;29.15;42.18
59787;BME280;45672;51.612;5.536;2023-07-29T10:28:59;100581.47;;;30.03;41.09
59787;BME280;45672;51.612;5.536;2023-07-29T10:31:30;100575.94;;;29.55;40.93
59787;BME280;45672;51.612;5.536;2023-07-29T10:33:56;100569.34;;;28.92;41.87
59787;BME280;45672;51.612;5.536;2023-07-29T10:36:22;100564.69;;;28.43;43.41
59787;BME280;45672;51.612;5.536;2023-07-29T10:38:47;100563.34;;;28.90;42.95
59787;BME280;45672;51.612;5.536;2023-07-29T10:41:13;100568.47;;;30.14;40.92
59787;BME280;45672;51.612;5.536;2023-07-29T10:43:38;100565.88;;;30.23;40.18
59787;BME280;45672;51.612;5.536;2023-07-29T10:46:21;100561.03;;;29.02;42.06
59787;BME280;45672;51.612;5.536;2023-07-29T10:51:34;100556.75;;;28.46;44.63
59787;BME280;45672;51.612;5.536;2023-07-29T10:54:09;100547.44;;;27.77;44.94
59787;BME280;45672;51.612;5.536;2023-07-29T10:56:36;100555.03;;;27.90;46.87
59787;BME280;45672;51.612;5.536;2023-07-29T11:01:39;100561.13;;;26.79;48.16
59787;BME280;45672;51.612;5.536;2023-07-29T11:09:57;100553.13;;;25.45;52.90
59787;BME280;45672;51.612;5.536;2023-07-29T11:12:46;100558.03;;;25.11;54.84
59787;BME280;45672;51.612;5.536;2023-07-29T11:15:16;100549.69;;;24.90;56.35
59787;BME280;45672;51.612;5.536;2023-07-29T11:17:58;100562.03;;;24.76;56.82
59787;BME280;45672;51.612;5.536;2023-07-29T11:20:25;100548.16;;;24.72;56.76
59787;BME280;45672;51.612;5.536;2023-07-29T11:22:52;100557.38;;;24.71;57.17
59787;BME280;45672;51.612;5.536;2023-07-29T11:25:18;100546.78;;;24.48;58.24
59787;BME280;45672;51.612;5.536;2023-07-29T11:27:44;100556.81;;;24.47;57.81
59787;BME280;45672;51.612;5.536;2023-07-29T11:30:11;100552.78;;;24.27;58.05
59787;BME280;45672;51.612;5.536;2023-07-29T11:32:38;100556.66;;;24.32;60.03
59787;BME280;45672;51.612;5.536;2023-07-29T11:35:05;100549.50;;;24.48;59.00
59787;BME280;45672;51.612;5.536;2023-07-29T11:37:33;100556.81;;;24.47;58.18
59787;BME280;45672;51.612;5.536;2023-07-29T11:39:58;100553.59;;;24.50;58.98
59787;BME280;45672;51.612;5.536;2023-07-29T11:42:24;100563.03;;;24.42;59.64
59787;BME280;45672;51.612;5.536;2023-07-29T11:44:49;100560.56;;;24.19;62.80
59787;BME280;45672;51.612;5.536;2023-07-29T11:47:14;100559.69;;;24.35;65.69
59787;BME280;45672;51.612;5.536;2023-07-29T11:49:40;100564.63;;;24.88;61.94
59787;BME280;45672;51.612;5.536;2023-07-29T11:52:07;100569.25;;;25.52;59.67
59787;BME280;45672;51.612;5.536;2023-07-29T11:54:35;100561.81;;;25.80;56.17
59787;BME280;45672;51.612;5.536;2023-07-29T11:57:01;100567.22;;;26.28;55.87
59787;BME280;45672;51.612;5.536;2023-07-29T11:59:27;100556.19;;;26.71;53.58
59787;BME280;45672;51.612;5.536;2023-07-29T12:01:53;100548.28;;;26.84;51.87
59787;BME280;45672;51.612;5.536;2023-07-29T12:04:19;100550.16;;;26.58;52.40
59787;BME280;45672;51.612;5.536;2023-07-29T12:06:44;100547.56;;;26.21;52.79
59787;BME280;45672;51.612;5.536;2023-07-29T12:09:10;100549.63;;;25.93;55.28
59787;BME280;45672;51.612;5.536;2023-07-29T12:11:35;100547.47;;;25.20;59.44
59787;BME280;45672;51.612;5.536;2023-07-29T12:14:01;100557.19;;;24.56;71.83
59787;BME280;45672;51.612;5.536;2023-07-29T12:16:26;100566.81;;;23.41;83.34
59787;BME280;45672;51.612;5.536;2023-07-29T12:18:52;100573.50;;;22.06;91.98
59787;BME280;45672;51.612;5.536;2023-07-29T12:21:20;100578.28;;;20.91;100.00
59787;BME280;45672;51.612;5.536;2023-07-29T12:23:46;100570.34;;;20.47;100.00
59787;BME280;45672;51.612;5.536;2023-07-29T12:26:11;100578.84;;;20.13;100.00
59787;BME280;45672;51.612;5.536;2023-07-29T12:28:36;100609.97;;;19.72;100.00
59787;BME280;45672;51.612;5.536;2023-07-29T12:31:07;100627.00;;;19.48;100.00
59787;BME280;45672;51.612;5.536;2023-07-29T12:33:36;100606.47;;;19.40;100.00
59787;BME280;45672;51.612;5.536;2023-07-29T12:36:04;100601.50;;;19.43;100.00
59787;BME280;45672;51.612;5.536;2023-07-29T12:38:29;100616.91;;;19.36;100.00
59787;BME280;45672;51.612;5.536;2023-07-29T12:40:55;100624.81;;;19.31;100.00
59787;BME280;45672;51.612;5.536;2023-07-29T12:43:21;100618.91;;;19.16;100.00
59787;BME280;45672;51.612;5.536;2023-07-29T12:45:49;100618.75;;;19.10;100.00
59787;BME280;45672;51.612;5.536;2023-07-29T12:48:14;100607.31;;;19.08;100.00
59787;BME280;45672;51.612;5.536;2023-07-29T12:50:40;100603.16;;;19.12;100.00
59787;BME280;45672;51.612;5.536;2023-07-29T12:53:07;100605.66;;;19.07;100.00